sensor_id;sensor_type;location;lat;lon;timestamp;temperature;humidity
57106;DHT22;62662;56.788;23.942;2022-09-09T00:01:50;5.50;99.90
57106;DHT22;62662;56.788;23.942;2022-09-09T00:04:30;5.60;99.90
57106;DHT22;62662;56.788;23.942;2022-09-09T00:07:51;5.60;99.90
57106;DHT22;62662;56.788;23.942;2022-09-09T00:16:00;5.50;99.90
57106;DHT22;62662;56.788;23.942;2022-09-09T00:21:14;5.40;99.90
57106;DHT22;62662;56.788;23.942;2022-09-09T00:23:45;5.30;99.90
57106;DHT22;62662;56.788;23.942;2022-09-09T00:26:40;5.30;99.90
57106;DHT22;62662;56.788;23.942;2022-09-09T00:29:28;5.30;99.90
57106;DHT22;62662;56.788;23.942;2022-09-09T00:32:15;5.30;99.90
57106;DHT22;62662;56.788;23.942;2022-09-09T00:35:12;5.20;99.90
57106;DHT22;62662;56.788;23.942;2022-09-09T00:37:44;5.20;99.90
57106;DHT22;62662;56.788;23.942;2022-09-09T00:40:35;5.20;99.90
57106;DHT22;62662;56.788;23.942;2022-09-09T00:43:27;5.10;99.90
57106;DHT22;62662;56.788;23.942;2022-09-09T00:51:26;4.90;99.90
57106;DHT22;62662;56.788;23.942;2022-09-09T00:56:50;4.90;99.90
57106;DHT22;62662;56.788;23.942;2022-09-09T00:59:52;5.00;99.90
57106;DHT22;62662;56.788;23.942;2022-09-09T01:02:38;5.00;99.90
57106;DHT22;62662;56.788;23.942;2022-09-09T01:05:23;5.10;99.90
57106;DHT22;62662;56.788;23.942;2022-09-09T01:07:53;5.10;99.90
57106;DHT22;62662;56.788;23.942;2022-09-09T01:10:52;5.10;99.90
57106;DHT22;62662;56.788;23.942;2022-09-09T01:13:26;5.20;99.90
57106;DHT22;62662;56.788;23.942;2022-09-09T01:16:01;5.20;99.90
57106;DHT22;62662;56.788;23.942;2022-09-09T01:18:33;5.10;99.90
57106;DHT22;62662;56.788;23.942;2022-09-09T01:28:59;4.90;99.90
57106;DHT22;62662;56.788;23.942;2022-09-09T01:31:52;5.00;99.90
57106;DHT22;62662;56.788;23.942;2022-09-09T01:34:20;4.90;99.90
57106;DHT22;62662;56.788;23.942;2022-09-09T01:39:33;4.90;99.90
57106;DHT22;62662;56.788;23.942;2022-09-09T01:42:02;4.90;99.90
57106;DHT22;62662;56.788;23.942;2022-09-09T01:44:30;4.90;99.90
57106;DHT22;62662;56.788;23.942;2022-09-09T01:46:57;5.00;99.90
57106;DHT22;62662;56.788;23.942;2022-09-09T01:49:24;5.00;99.90
57106;DHT22;62662;56.788;23.942;2022-09-09T01:51:53;5.00;99.90
57106;DHT22;62662;56.788;23.942;2022-09-09T01:54:24;4.90;99.90
57106;DHT22;62662;56.788;23.942;2022-09-09T01:57:30;4.90;99.90
57106;DHT22;62662;56.788;23.942;2022-09-09T02:00:06;4.90;99.90
57106;DHT22;62662;56.788;23.942;2022-09-09T02:06:01;4.90;99.90
57106;DHT22;62662;56.788;23.942;2022-09-09T02:08:50;4.90;99.90
57106;DHT22;62662;56.788;23.942;2022-09-09T02:11:19;4.90;99.90
57106;DHT22;62662;56.788;23.942;2022-09-09T02:13:51;4.90;99.90
57106;DHT22;62662;56.788;23.942;2022-09-09T02:19:21;4.90;99.90
57106;DHT22;62662;56.788;23.942;2022-09-09T02:21:54;4.90;99.90
57106;DHT22;62662;56.788;23.942;2022-09-09T02:24:22;4.90;99.90
57106;DHT22;62662;56.788;23.942;2022-09-09T02:26:52;4.80;99.90
57106;DHT22;62662;56.788;23.942;2022-09-09T02:29:33;4.80;99.90
57106;DHT22;62662;56.788;23.942;2022-09-09T02:32:05;4.80;99.90
57106;DHT22;62662;56.788;23.942;2022-09-09T02:34:36;4.80;99.90
57106;DHT22;62662;56.788;23.942;2022-09-09T02:37:07;4.70;99.90
57106;DHT22;62662;56.788;23.942;2022-09-09T02:39:34;4.60;99.90
57106;DHT22;62662;56.788;23.942;2022-09-09T02:42:03;4.60;99.90
57106;DHT22;62662;56.788;23.942;2022-09-09T02:44:30;4.50;99.90
57106;DHT22;62662;56.788;23.942;2022-09-09T02:52:50;4.70;99.90
57106;DHT22;62662;56.788;23.942;2022-09-09T02:55:02;4.70;99.90
57106;DHT22;62662;56.788;23.942;2022-09-09T02:57:31;4.70;99.90
57106;DHT22;62662;56.788;23.942;2022-09-09T02:59:59;4.60;99.90
57106;DHT22;62662;56.788;23.942;2022-09-09T03:02:27;4.70;99.90
57106;DHT22;62662;56.788;23.942;2022-09-09T03:04:55;4.70;99.90
57106;DHT22;62662;56.788;23.942;2022-09-09T03:07:22;4.70;99.90
57106;DHT22;62662;56.788;23.942;2022-09-09T03:09:49;4.60;99.90
57106;DHT22;62662;56.788;23.942;2022-09-09T03:12:16;4.60;99.90
57106;DHT22;62662;56.788;23.942;2022-09-09T03:14:43;4.60;99.90
57106;DHT22;62662;56.788;23.942;2022-09-09T03:17:12;4.60;99.90
57106;DHT22;62662;56.788;23.942;2022-09-09T03:19:39;4.70;99.90
57106;DHT22;62662;56.788;23.942;2022-09-09T03:22:09;4.60;99.90
57106;DHT22;62662;56.788;23.942;2022-09-09T03:24:37;4.60;99.90
57106;DHT22;62662;56.788;23.942;2022-09-09T03:27:04;4.60;99.90
57106;DHT22;62662;56.788;23.942;2022-09-09T03:29:31;4.50;99.90
57106;DHT22;62662;56.788;23.942;2022-09-09T03:31:58;4.50;99.90
57106;DHT22;62662;56.788;23.942;2022-09-09T03:34:25;4.60;99.90
57106;DHT22;62662;56.788;23.942;2022-09-09T03:36:52;4.50;99.90
57106;DHT22;62662;56.788;23.942;2022-09-09T03:39:19;4.40;99.90
57106;DHT22;62662;56.788;23.942;2022-09-09T03:41:46;4.40;99.90
57106;DHT22;62662;56.788;23.942;2022-09-09T03:44:15;4.40;99.90
57106;DHT22;62662;56.788;23.942;2022-09-09T03:46:42;4.50;99.90
57106;DHT22;62662;56.788;23.942;2022-09-09T03:49:09;4.50;99.90
57106;DHT22;62662;56.788;23.942;2022-09-09T03:51:37;4.50;99.90
57106;DHT22;62662;56.788;23.942;2022-09-09T03:54:05;4.50;99.90
57106;DHT22;62662;56.788;23.942;2022-09-09T03:56:34;4.60;99.90
57106;DHT22;62662;56.788;23.942;2022-09-09T03:59:02;3.50;99.90
57106;DHT22;62662;56.788;23.942;2022-09-09T04:01:30;4.60;99.90
57106;DHT22;62662;56.788;23.942;2022-09-09T04:03:57;4.60;99.90
57106;DHT22;62662;56.788;23.942;2022-09-09T04:06:25;4.60;99.90
57106;DHT22;62662;56.788;23.942;2022-09-09T04:08:52;4.60;99.90
57106;DHT22;62662;56.788;23.942;2022-09-09T04:11:19;4.80;99.90
57106;DHT22;62662;56.788;23.942;2022-09-09T04:13:47;4.70;99.90
57106;DHT22;62662;56.788;23.942;2022-09-09T04:16:14;4.80;99.90
57106;DHT22;62662;56.788;23.942;2022-09-09T04:18:42;4.80;99.90
57106;DHT22;62662;56.788;23.942;2022-09-09T04:21:10;4.80;99.90
57106;DHT22;62662;56.788;23.942;2022-09-09T04:23:39;4.90;99.90
57106;DHT22;62662;56.788;23.942;2022-09-09T04:26:06;4.90;99.90
57106;DHT22;62662;56.788;23.942;2022-09-09T04:28:35;4.90;99.90
57106;DHT22;62662;56.788;23.942;2022-09-09T04:31:09;5.10;99.90
57106;DHT22;62662;56.788;23.942;2022-09-09T04:33:38;5.00;99.90
57106;DHT22;62662;56.788;23.942;2022-09-09T04:36:07;5.10;99.90
57106;DHT22;62662;56.788;23.942;2022-09-09T04:38:41;5.20;99.90
57106;DHT22;62662;56.788;23.942;2022-09-09T04:41:08;5.30;99.90
57106;DHT22;62662;56.788;23.942;2022-09-09T04:43:38;5.40;99.90
57106;DHT22;62662;56.788;23.942;2022-09-09T04:46:06;5.40;99.90
57106;DHT22;62662;56.788;23.942;2022-09-09T04:48:33;5.40;99.90
57106;DHT22;62662;56.788;23.942;2022-09-09T04:51:13;5.60;99.90
57106;DHT22;62662;56.788;23.942;2022-09-09T04:56:40;5.50;99.90
57106;DHT22;62662;56.788;23.942;2022-09-09T04:59:17;5.90;99.90
57106;DHT22;62662;56.788;23.942;2022-09-09T05:02:03;6.00;99.90
57106;DHT22;62662;56.788;23.942;2022-09-09T05:04:52;6.20;99.90
57106;DHT22;62662;56.788;23.942;2022-09-09T05:11:30;6.70;99.90
57106;DHT22;62662;56.788;23.942;2022-09-09T05:24:44;6.90;99.90
57106;DHT22;62662;56.788;23.942;2022-09-09T05:52:57;8.40;99.90
57106;DHT22;62662;56.788;23.942;2022-09-09T05:56:13;8.40;99.90
57106;DHT22;62662;56.788;23.942;2022-09-09T06:10:31;10.50;99.90
57106;DHT22;62662;56.788;23.942;2022-09-09T06:17:16;16.50;99.90
57106;DHT22;62662;56.788;23.942;2022-09-09T06:42:26;20.50;86.50
57106;DHT22;62662;56.788;23.942;2022-09-09T06:45:52;19.40;88.40
57106;DHT22;62662;56.788;23.942;2022-09-09T07:31:37;22.00;73.90
57106;DHT22;62662;56.788;23.942;2022-09-09T07:34:49;22.80;71.40
57106;DHT22;62662;56.788;23.942;2022-09-09T07:37:39;23.00;71.60
57106;DHT22;62662;56.788;23.942;2022-09-09T07:40:40;22.50;71.70
57106;DHT22;62662;56.788;23.942;2022-09-09T07:43:13;23.00;70.20
57106;DHT22;62662;56.788;23.942;2022-09-09T07:45:45;23.60;70.10
57106;DHT22;62662;56.788;23.942;2022-09-09T07:48:17;22.40;71.30
57106;DHT22;62662;56.788;23.942;2022-09-09T08:10:10;22.70;67.10
57106;DHT22;62662;56.788;23.942;2022-09-09T08:13:26;23.60;65.90
57106;DHT22;62662;56.788;23.942;2022-09-09T08:16:34;23.20;64.10
57106;DHT22;62662;56.788;23.942;2022-09-09T08:19:04;22.90;63.90
57106;DHT22;62662;56.788;23.942;2022-09-09T08:26:02;22.20;65.00
57106;DHT22;62662;56.788;23.942;2022-09-09T08:38:38;23.30;62.60
57106;DHT22;62662;56.788;23.942;2022-09-09T08:50:49;22.70;61.80
57106;DHT22;62662;56.788;23.942;2022-09-09T08:53:30;24.10;59.60
57106;DHT22;62662;56.788;23.942;2022-09-09T08:56:09;23.60;59.50
57106;DHT22;62662;56.788;23.942;2022-09-09T08:58:47;23.10;60.10
57106;DHT22;62662;56.788;23.942;2022-09-09T09:12:32;24.50;57.90
57106;DHT22;62662;56.788;23.942;2022-09-09T09:15:12;25.40;55.50
57106;DHT22;62662;56.788;23.942;2022-09-09T09:17:44;24.60;55.50
57106;DHT22;62662;56.788;23.942;2022-09-09T09:20:14;24.60;53.90
57106;DHT22;62662;56.788;23.942;2022-09-09T09:22:48;22.80;56.10
57106;DHT22;62662;56.788;23.942;2022-09-09T09:25:23;22.50;57.20
57106;DHT22;62662;56.788;23.942;2022-09-09T09:28:21;22.40;57.70
57106;DHT22;62662;56.788;23.942;2022-09-09T09:31:06;21.30;58.70
57106;DHT22;62662;56.788;23.942;2022-09-09T09:33:50;21.90;57.70
57106;DHT22;62662;56.788;23.942;2022-09-09T09:37:01;22.00;57.30
57106;DHT22;62662;56.788;23.942;2022-09-09T09:40:33;21.50;58.80
57106;DHT22;62662;56.788;23.942;2022-09-09T09:47:45;21.30;58.90
57106;DHT22;62662;56.788;23.942;2022-09-09T09:50:34;21.90;63.80
57106;DHT22;62662;56.788;23.942;2022-09-09T09:53:05;23.00;57.70
57106;DHT22;62662;56.788;23.942;2022-09-09T09:55:57;22.10;58.20
57106;DHT22;62662;56.788;23.942;2022-09-09T09:58:50;21.80;58.70
57106;DHT22;62662;56.788;23.942;2022-09-09T10:01:44;22.40;57.60
57106;DHT22;62662;56.788;23.942;2022-09-09T10:04:59;22.40;58.70
57106;DHT22;62662;56.788;23.942;2022-09-09T10:07:35;23.90;57.50
57106;DHT22;62662;56.788;23.942;2022-09-09T10:10:18;25.30;63.20
57106;DHT22;62662;56.788;23.942;2022-09-09T10:15:45;25.80;55.00
57106;DHT22;62662;56.788;23.942;2022-09-09T10:48:10;24.50;54.10
57106;DHT22;62662;56.788;23.942;2022-09-09T10:53:50;24.10;53.00
57106;DHT22;62662;56.788;23.942;2022-09-09T10:56:21;25.30;52.80
57106;DHT22;62662;56.788;23.942;2022-09-09T10:59:05;24.70;53.30
57106;DHT22;62662;56.788;23.942;2022-09-09T11:04:55;22.80;55.30
57106;DHT22;62662;56.788;23.942;2022-09-09T11:07:36;22.50;55.60
57106;DHT22;62662;56.788;23.942;2022-09-09T11:10:21;22.30;55.70
57106;DHT22;62662;56.788;23.942;2022-09-09T11:13:01;23.20;55.40
57106;DHT22;62662;56.788;23.942;2022-09-09T11:15:41;23.40;55.70
57106;DHT22;62662;56.788;23.942;2022-09-09T11:18:18;24.40;54.20
57106;DHT22;62662;56.788;23.942;2022-09-09T11:20:48;23.90;54.70
57106;DHT22;62662;56.788;23.942;2022-09-09T11:23:24;24.30;54.20
57106;DHT22;62662;56.788;23.942;2022-09-09T11:25:55;24.00;55.00
57106;DHT22;62662;56.788;23.942;2022-09-09T11:31:46;24.20;53.60
57106;DHT22;62662;56.788;23.942;2022-09-09T11:34:44;24.60;54.90
57106;DHT22;62662;56.788;23.942;2022-09-09T11:40:45;24.70;54.10
57106;DHT22;62662;56.788;23.942;2022-09-09T11:43:17;24.80;53.00
57106;DHT22;62662;56.788;23.942;2022-09-09T11:46:08;25.00;52.90
57106;DHT22;62662;56.788;23.942;2022-09-09T11:48:40;24.70;55.00
57106;DHT22;62662;56.788;23.942;2022-09-09T11:54:00;24.30;53.50
57106;DHT22;62662;56.788;23.942;2022-09-09T11:56:34;24.40;53.50
57106;DHT22;62662;56.788;23.942;2022-09-09T11:59:19;23.80;53.60
57106;DHT22;62662;56.788;23.942;2022-09-09T12:01:55;22.90;54.50
57106;DHT22;62662;56.788;23.942;2022-09-09T12:17:20;23.50;55.10
57106;DHT22;62662;56.788;23.942;2022-09-09T12:28:21;22.40;57.70
57106;DHT22;62662;56.788;23.942;2022-09-09T12:33:52;21.90;56.80
57106;DHT22;62662;56.788;23.942;2022-09-09T12:36:27;22.20;56.70
57106;DHT22;62662;56.788;23.942;2022-09-09T12:38:56;22.60;56.00
57106;DHT22;62662;56.788;23.942;2022-09-09T12:41:27;22.70;56.10
57106;DHT22;62662;56.788;23.942;2022-09-09T12:44:06;23.10;55.70
57106;DHT22;62662;56.788;23.942;2022-09-09T12:46:45;23.20;55.80
57106;DHT22;62662;56.788;23.942;2022-09-09T12:49:29;24.30;54.90
57106;DHT22;62662;56.788;23.942;2022-09-09T12:52:08;23.70;55.40
57106;DHT22;62662;56.788;23.942;2022-09-09T12:54:37;22.70;56.50
57106;DHT22;62662;56.788;23.942;2022-09-09T12:57:05;23.00;56.70
57106;DHT22;62662;56.788;23.942;2022-09-09T12:59:37;22.20;56.40
57106;DHT22;62662;56.788;23.942;2022-09-09T13:02:21;21.40;58.20
57106;DHT22;62662;56.788;23.942;2022-09-09T13:04:49;20.80;58.70
57106;DHT22;62662;56.788;23.942;2022-09-09T13:07:18;19.30;62.00
57106;DHT22;62662;56.788;23.942;2022-09-09T13:09:47;18.40;65.10
57106;DHT22;62662;56.788;23.942;2022-09-09T13:12:18;18.00;66.90
57106;DHT22;62662;56.788;23.942;2022-09-09T13:14:49;17.90;68.20
57106;DHT22;62662;56.788;23.942;2022-09-09T13:17:20;17.60;66.50
57106;DHT22;62662;56.788;23.942;2022-09-09T13:19:49;17.40;66.30
57106;DHT22;62662;56.788;23.942;2022-09-09T13:22:33;17.40;67.00
57106;DHT22;62662;56.788;23.942;2022-09-09T13:25:05;17.40;67.80
57106;DHT22;62662;56.788;23.942;2022-09-09T13:27:35;17.40;68.40
57106;DHT22;62662;56.788;23.942;2022-09-09T13:30:22;17.10;68.10
57106;DHT22;62662;56.788;23.942;2022-09-09T13:33:20;17.20;69.30
57106;DHT22;62662;56.788;23.942;2022-09-09T13:35:48;17.40;69.10
57106;DHT22;62662;56.788;23.942;2022-09-09T13:38:16;17.30;68.10
57106;DHT22;62662;56.788;23.942;2022-09-09T13:41:05;16.90;68.10
57106;DHT22;62662;56.788;23.942;2022-09-09T13:43:36;17.00;69.00
57106;DHT22;62662;56.788;23.942;2022-09-09T13:46:22;17.00;69.30
57106;DHT22;62662;56.788;23.942;2022-09-09T13:48:58;16.90;69.20
57106;DHT22;62662;56.788;23.942;2022-09-09T13:51:47;17.00;69.60
57106;DHT22;62662;56.788;23.942;2022-09-09T13:54:16;17.20;69.00
57106;DHT22;62662;56.788;23.942;2022-09-09T13:56:44;17.00;69.00
57106;DHT22;62662;56.788;23.942;2022-09-09T13:59:16;16.90;69.80
57106;DHT22;62662;56.788;23.942;2022-09-09T14:01:46;16.90;69.50
57106;DHT22;62662;56.788;23.942;2022-09-09T14:04:13;16.80;70.90
57106;DHT22;62662;56.788;23.942;2022-09-09T14:06:41;16.90;71.00
57106;DHT22;62662;56.788;23.942;2022-09-09T14:09:12;17.00;70.40
57106;DHT22;62662;56.788;23.942;2022-09-09T14:11:39;17.10;70.20
57106;DHT22;62662;56.788;23.942;2022-09-09T14:14:07;17.10;70.20
57106;DHT22;62662;56.788;23.942;2022-09-09T14:16:34;16.90;70.70
57106;DHT22;62662;56.788;23.942;2022-09-09T14:19:01;16.80;70.40
57106;DHT22;62662;56.788;23.942;2022-09-09T14:21:28;16.80;71.30
57106;DHT22;62662;56.788;23.942;2022-09-09T14:23:55;16.80;70.70
57106;DHT22;62662;56.788;23.942;2022-09-09T14:26:24;16.80;71.10
57106;DHT22;62662;56.788;23.942;2022-09-09T14:28:51;16.70;70.80
57106;DHT22;62662;56.788;23.942;2022-09-09T14:31:22;16.60;71.00
57106;DHT22;62662;56.788;23.942;2022-09-09T14:33:50;16.70;71.70
57106;DHT22;62662;56.788;23.942;2022-09-09T14:36:18;17.00;72.00
57106;DHT22;62662;56.788;23.942;2022-09-09T14:38:45;16.70;72.20
57106;DHT22;62662;56.788;23.942;2022-09-09T14:41:14;16.70;71.70
57106;DHT22;62662;56.788;23.942;2022-09-09T14:43:44;16.60;72.00
57106;DHT22;62662;56.788;23.942;2022-09-09T14:46:17;16.60;71.40
57106;DHT22;62662;56.788;23.942;2022-09-09T14:48:45;16.70;72.10
57106;DHT22;62662;56.788;23.942;2022-09-09T14:51:23;16.60;71.60
57106;DHT22;62662;56.788;23.942;2022-09-09T14:53:52;16.40;86.40
57106;DHT22;62662;56.788;23.942;2022-09-09T14:56:21;16.30;79.50
57106;DHT22;62662;56.788;23.942;2022-09-09T14:58:50;16.60;72.90
57106;DHT22;62662;56.788;23.942;2022-09-09T15:01:19;16.50;72.40
57106;DHT22;62662;56.788;23.942;2022-09-09T15:03:53;16.40;72.80
57106;DHT22;62662;56.788;23.942;2022-09-09T15:06:22;16.40;73.00
57106;DHT22;62662;56.788;23.942;2022-09-09T15:08:51;16.30;73.20
57106;DHT22;62662;56.788;23.942;2022-09-09T15:11:19;16.30;73.30
57106;DHT22;62662;56.788;23.942;2022-09-09T15:13:47;16.10;73.20
57106;DHT22;62662;56.788;23.942;2022-09-09T15:16:17;16.10;73.80
57106;DHT22;62662;56.788;23.942;2022-09-09T15:18:45;16.00;74.10
57106;DHT22;62662;56.788;23.942;2022-09-09T15:21:16;16.00;74.60
57106;DHT22;62662;56.788;23.942;2022-09-09T15:23:43;16.00;74.60
57106;DHT22;62662;56.788;23.942;2022-09-09T15:26:10;15.90;75.00
57106;DHT22;62662;56.788;23.942;2022-09-09T15:28:38;15.70;75.80
57106;DHT22;62662;56.788;23.942;2022-09-09T15:31:09;15.60;75.60
57106;DHT22;62662;56.788;23.942;2022-09-09T15:33:37;15.50;76.00
57106;DHT22;62662;56.788;23.942;2022-09-09T15:36:22;15.40;76.20
57106;DHT22;62662;56.788;23.942;2022-09-09T15:38:50;15.30;77.30
57106;DHT22;62662;56.788;23.942;2022-09-09T15:41:19;15.20;77.80
57106;DHT22;62662;56.788;23.942;2022-09-09T15:43:49;15.10;78.40
57106;DHT22;62662;56.788;23.942;2022-09-09T15:46:25;15.10;78.80
57106;DHT22;62662;56.788;23.942;2022-09-09T15:49:18;15.00;79.20
57106;DHT22;62662;56.788;23.942;2022-09-09T15:51:47;14.80;79.90
57106;DHT22;62662;56.788;23.942;2022-09-09T15:54:17;14.70;80.70
57106;DHT22;62662;56.788;23.942;2022-09-09T15:56:46;14.60;81.20
57106;DHT22;62662;56.788;23.942;2022-09-09T15:59:16;14.50;80.90
57106;DHT22;62662;56.788;23.942;2022-09-09T16:01:43;14.40;81.70
57106;DHT22;62662;56.788;23.942;2022-09-09T16:04:11;14.30;81.90
57106;DHT22;62662;56.788;23.942;2022-09-09T16:06:39;14.20;82.50
57106;DHT22;62662;56.788;23.942;2022-09-09T16:09:07;14.20;82.80
57106;DHT22;62662;56.788;23.942;2022-09-09T16:11:37;14.10;83.10
57106;DHT22;62662;56.788;23.942;2022-09-09T16:14:04;14.10;84.30
57106;DHT22;62662;56.788;23.942;2022-09-09T16:16:33;14.00;84.10
57106;DHT22;62662;56.788;23.942;2022-09-09T16:19:12;13.80;84.40
57106;DHT22;62662;56.788;23.942;2022-09-09T16:21:42;13.80;85.40
57106;DHT22;62662;56.788;23.942;2022-09-09T16:24:13;13.60;86.30
57106;DHT22;62662;56.788;23.942;2022-09-09T16:26:43;13.50;86.10
57106;DHT22;62662;56.788;23.942;2022-09-09T16:29:14;13.40;87.40
57106;DHT22;62662;56.788;23.942;2022-09-09T16:31:41;13.20;87.50
57106;DHT22;62662;56.788;23.942;2022-09-09T16:34:09;13.20;88.40
57106;DHT22;62662;56.788;23.942;2022-09-09T16:36:38;13.00;89.30
57106;DHT22;62662;56.788;23.942;2022-09-09T16:39:11;12.90;90.20
57106;DHT22;62662;56.788;23.942;2022-09-09T16:41:40;12.80;90.40
57106;DHT22;62662;56.788;23.942;2022-09-09T16:44:10;12.70;90.70
57106;DHT22;62662;56.788;23.942;2022-09-09T16:46:40;12.60;91.00
57106;DHT22;62662;56.788;23.942;2022-09-09T16:49:10;12.50;91.70
57106;DHT22;62662;56.788;23.942;2022-09-09T16:51:43;12.30;91.80
57106;DHT22;62662;56.788;23.942;2022-09-09T16:54:11;12.20;92.50
57106;DHT22;62662;56.788;23.942;2022-09-09T16:56:42;12.10;93.00
57106;DHT22;62662;56.788;23.942;2022-09-09T16:59:20;12.00;94.10
57106;DHT22;62662;56.788;23.942;2022-09-09T17:01:50;11.90;94.10
57106;DHT22;62662;56.788;23.942;2022-09-09T17:04:20;11.80;94.60
57106;DHT22;62662;56.788;23.942;2022-09-09T17:06:49;11.60;95.40
57106;DHT22;62662;56.788;23.942;2022-09-09T17:09:17;11.60;96.00
57106;DHT22;62662;56.788;23.942;2022-09-09T17:11:44;11.40;96.70
57106;DHT22;62662;56.788;23.942;2022-09-09T17:14:17;11.40;98.20
57106;DHT22;62662;56.788;23.942;2022-09-09T17:16:45;11.30;98.30
57106;DHT22;62662;56.788;23.942;2022-09-09T17:19:14;11.30;98.90
57106;DHT22;62662;56.788;23.942;2022-09-09T17:21:41;11.10;99.90
57106;DHT22;62662;56.788;23.942;2022-09-09T17:24:28;11.00;99.90
57106;DHT22;62662;56.788;23.942;2022-09-09T17:26:56;10.90;99.90
57106;DHT22;62662;56.788;23.942;2022-09-09T17:29:27;10.80;99.90
57106;DHT22;62662;56.788;23.942;2022-09-09T17:31:54;10.80;99.90
57106;DHT22;62662;56.788;23.942;2022-09-09T17:34:21;10.70;99.90
57106;DHT22;62662;56.788;23.942;2022-09-09T17:36:50;10.60;99.90
57106;DHT22;62662;56.788;23.942;2022-09-09T17:39:17;10.50;99.90
57106;DHT22;62662;56.788;23.942;2022-09-09T17:41:44;10.50;99.90
57106;DHT22;62662;56.788;23.942;2022-09-09T17:44:12;10.50;99.90
57106;DHT22;62662;56.788;23.942;2022-09-09T17:46:41;10.50;99.90
57106;DHT22;62662;56.788;23.942;2022-09-09T17:49:14;10.40;99.90
57106;DHT22;62662;56.788;23.942;2022-09-09T17:51:43;10.30;99.90
57106;DHT22;62662;56.788;23.942;2022-09-09T17:54:14;10.20;99.90
57106;DHT22;62662;56.788;23.942;2022-09-09T17:56:45;10.10;99.90
57106;DHT22;62662;56.788;23.942;2022-09-09T17:59:14;10.20;99.90
57106;DHT22;62662;56.788;23.942;2022-09-09T18:01:43;10.20;99.90
57106;DHT22;62662;56.788;23.942;2022-09-09T18:04:13;10.10;99.90
57106;DHT22;62662;56.788;23.942;2022-09-09T18:06:42;10.10;99.90
57106;DHT22;62662;56.788;23.942;2022-09-09T18:09:13;10.10;99.90
57106;DHT22;62662;56.788;23.942;2022-09-09T18:11:44;10.00;99.90
57106;DHT22;62662;56.788;23.942;2022-09-09T18:14:14;10.00;99.90
57106;DHT22;62662;56.788;23.942;2022-09-09T18:16:44;9.90;99.90
57106;DHT22;62662;56.788;23.942;2022-09-09T18:19:14;9.90;99.90
57106;DHT22;62662;56.788;23.942;2022-09-09T18:21:43;9.80;99.90
57106;DHT22;62662;56.788;23.942;2022-09-09T18:24:11;9.70;99.90
57106;DHT22;62662;56.788;23.942;2022-09-09T18:26:40;9.70;99.90
57106;DHT22;62662;56.788;23.942;2022-09-09T18:29:12;9.60;99.90
57106;DHT22;62662;56.788;23.942;2022-09-09T18:31:40;9.50;99.90
57106;DHT22;62662;56.788;23.942;2022-09-09T18:34:10;9.50;99.90
57106;DHT22;62662;56.788;23.942;2022-09-09T18:36:43;9.50;99.90
57106;DHT22;62662;56.788;23.942;2022-09-09T18:39:12;9.50;99.90
57106;DHT22;62662;56.788;23.942;2022-09-09T18:41:45;9.50;99.90
57106;DHT22;62662;56.788;23.942;2022-09-09T18:44:15;9.50;99.90
57106;DHT22;62662;56.788;23.942;2022-09-09T18:46:45;9.50;99.90
57106;DHT22;62662;56.788;23.942;2022-09-09T18:49:14;9.50;99.90
57106;DHT22;62662;56.788;23.942;2022-09-09T18:51:43;9.40;99.90
57106;DHT22;62662;56.788;23.942;2022-09-09T18:54:12;9.30;99.90
57106;DHT22;62662;56.788;23.942;2022-09-09T18:56:40;9.30;99.90
57106;DHT22;62662;56.788;23.942;2022-09-09T18:59:10;9.20;99.90
57106;DHT22;62662;56.788;23.942;2022-09-09T19:01:38;9.20;99.90
57106;DHT22;62662;56.788;23.942;2022-09-09T19:04:06;9.10;99.90
57106;DHT22;62662;56.788;23.942;2022-09-09T19:06:37;9.00;99.90
57106;DHT22;62662;56.788;23.942;2022-09-09T19:09:04;8.90;99.90
57106;DHT22;62662;56.788;23.942;2022-09-09T19:11:32;8.80;99.90
57106;DHT22;62662;56.788;23.942;2022-09-09T19:14:01;8.70;99.90
57106;DHT22;62662;56.788;23.942;2022-09-09T19:16:33;8.70;99.90
57106;DHT22;62662;56.788;23.942;2022-09-09T19:19:11;8.60;99.90
57106;DHT22;62662;56.788;23.942;2022-09-09T19:21:40;8.70;99.90
57106;DHT22;62662;56.788;23.942;2022-09-09T19:24:12;8.80;99.90
57106;DHT22;62662;56.788;23.942;2022-09-09T19:26:43;8.70;99.90
57106;DHT22;62662;56.788;23.942;2022-09-09T19:29:13;8.70;99.90
57106;DHT22;62662;56.788;23.942;2022-09-09T19:31:42;8.70;99.90
57106;DHT22;62662;56.788;23.942;2022-09-09T19:34:30;8.60;99.90
57106;DHT22;62662;56.788;23.942;2022-09-09T19:36:58;8.50;99.90
57106;DHT22;62662;56.788;23.942;2022-09-09T19:39:26;8.40;99.90
57106;DHT22;62662;56.788;23.942;2022-09-09T19:41:53;8.40;99.90
57106;DHT22;62662;56.788;23.942;2022-09-09T19:44:21;8.20;99.90
57106;DHT22;62662;56.788;23.942;2022-09-09T19:46:48;8.10;99.90
57106;DHT22;62662;56.788;23.942;2022-09-09T19:49:16;8.00;99.90
57106;DHT22;62662;56.788;23.942;2022-09-09T19:51:43;8.00;99.90
57106;DHT22;62662;56.788;23.942;2022-09-09T19:54:12;8.00;99.90
57106;DHT22;62662;56.788;23.942;2022-09-09T19:56:42;7.90;99.90
57106;DHT22;62662;56.788;23.942;2022-09-09T19:59:11;7.90;99.90
57106;DHT22;62662;56.788;23.942;2022-09-09T20:01:41;7.90;99.90
57106;DHT22;62662;56.788;23.942;2022-09-09T20:04:11;7.90;99.90
57106;DHT22;62662;56.788;23.942;2022-09-09T20:06:40;8.10;99.90
57106;DHT22;62662;56.788;23.942;2022-09-09T20:09:11;8.10;99.90
57106;DHT22;62662;56.788;23.942;2022-09-09T20:11:41;8.10;99.90
57106;DHT22;62662;56.788;23.942;2022-09-09T20:14:09;8.10;99.90
57106;DHT22;62662;56.788;23.942;2022-09-09T20:16:38;8.20;99.90
57106;DHT22;62662;56.788;23.942;2022-09-09T20:19:06;8.10;99.90
57106;DHT22;62662;56.788;23.942;2022-09-09T20:21:39;8.10;99.90
57106;DHT22;62662;56.788;23.942;2022-09-09T20:24:13;8.30;99.90
57106;DHT22;62662;56.788;23.942;2022-09-09T20:26:40;8.20;99.90
57106;DHT22;62662;56.788;23.942;2022-09-09T20:29:10;8.10;99.90
57106;DHT22;62662;56.788;23.942;2022-09-09T20:31:42;8.10;99.90
57106;DHT22;62662;56.788;23.942;2022-09-09T20:34:12;8.00;99.90
57106;DHT22;62662;56.788;23.942;2022-09-09T20:36:40;7.90;99.90
57106;DHT22;62662;56.788;23.942;2022-09-09T20:39:15;7.90;99.90
57106;DHT22;62662;56.788;23.942;2022-09-09T20:41:43;7.90;99.90
57106;DHT22;62662;56.788;23.942;2022-09-09T20:44:19;7.90;99.90
57106;DHT22;62662;56.788;23.942;2022-09-09T20:46:52;7.80;99.90
57106;DHT22;62662;56.788;23.942;2022-09-09T20:49:21;7.80;99.90
57106;DHT22;62662;56.788;23.942;2022-09-09T20:51:51;7.90;99.90
57106;DHT22;62662;56.788;23.942;2022-09-09T20:54:23;7.90;99.90
57106;DHT22;62662;56.788;23.942;2022-09-09T20:56:52;8.00;99.90
57106;DHT22;62662;56.788;23.942;2022-09-09T20:59:23;7.90;99.90